createdAt,value
2023-04-21T00:00:09.742Z,32.65
2023-04-21T00:02:39.905Z,32.28
2023-04-21T00:05:10.435Z,32.39
2023-04-21T00:07:39.476Z,32.40
2023-04-21T00:10:09.985Z,32.45
2023-04-21T00:12:38.310Z,32.46
2023-04-21T00:15:10.504Z,32.37
2023-04-21T00:17:39.224Z,32.26
2023-04-21T00:20:08.706Z,32.48
2023-04-21T00:22:36.639Z,32.31
2023-04-21T00:25:05.339Z,32.46
2023-04-21T00:27:34.642Z,32.64
2023-04-21T00:30:02.645Z,32.61
2023-04-21T00:32:30.967Z,32.84
2023-04-21T00:35:00.228Z,32.43
2023-04-21T00:37:28.197Z,32.91
2023-04-21T00:39:56.119Z,32.82
2023-04-21T00:42:23.992Z,32.63
2023-04-21T00:44:53.600Z,32.73
2023-04-21T00:47:21.550Z,32.79
2023-04-21T00:49:49.480Z,32.68
2023-04-21T00:52:17.668Z,32.38
2023-04-21T00:54:45.834Z,32.63
2023-04-21T00:57:13.715Z,32.68
2023-04-21T00:59:42.002Z,32.96
2023-04-21T01:02:11.397Z,32.83
2023-04-21T01:04:40.299Z,32.58
2023-04-21T01:07:10.085Z,32.63
2023-04-21T01:09:37.986Z,32.71
2023-04-21T01:12:06.718Z,32.68
2023-04-21T01:14:34.960Z,32.96
2023-04-21T01:17:03.865Z,32.77
2023-04-21T01:19:34.359Z,32.76
2023-04-21T01:22:04.311Z,32.89
2023-04-21T01:24:39.205Z,32.67
2023-04-21T01:27:10.268Z,32.71
2023-04-21T01:29:38.317Z,32.71
2023-04-21T01:32:07.734Z,32.67
2023-04-21T01:34:35.995Z,33.10
2023-04-21T01:37:05.283Z,33.17
2023-04-21T01:39:33.170Z,32.94
2023-04-21T01:42:01.308Z,33.22
2023-04-21T01:44:29.481Z,32.80
2023-04-21T01:46:57.393Z,33.16
2023-04-21T01:49:25.344Z,33.17
2023-04-21T01:51:53.249Z,32.77
2023-04-21T01:54:22.879Z,33.25
2023-04-21T01:56:50.828Z,33.22
2023-04-21T01:59:19.146Z,32.91
2023-04-21T02:01:47.362Z,32.87
2023-04-21T02:04:15.764Z,33.04
2023-04-21T02:06:43.734Z,32.95
2023-04-21T02:09:11.645Z,33.23
2023-04-21T02:11:40.969Z,33.27
2023-04-21T02:14:09.167Z,33.12
2023-04-21T02:16:37.110Z,33.04
2023-04-21T02:19:06.096Z,33.28
2023-04-21T02:21:33.994Z,33.10
2023-04-21T02:24:02.264Z,33.21
2023-04-21T02:26:30.185Z,32.92
2023-04-21T02:28:59.521Z,33.17
2023-04-21T02:31:27.505Z,33.28
2023-04-21T02:33:55.898Z,33.22
2023-04-21T02:36:23.796Z,32.88
2023-04-21T02:38:52.039Z,33.37
2023-04-21T02:41:19.914Z,33.10
2023-04-21T02:43:47.790Z,33.25
2023-04-21T02:46:17.064Z,33.15
2023-04-21T02:48:45.025Z,32.95
2023-04-21T02:51:13.734Z,33.41
2023-04-21T02:53:41.927Z,33.23
2023-04-21T02:56:09.982Z,33.27
2023-04-21T02:58:37.849Z,33.49
2023-04-21T03:01:06.102Z,33.05
2023-04-21T03:03:36.239Z,33.30
2023-04-21T03:06:05.410Z,33.16
2023-04-21T03:08:33.336Z,33.35
2023-04-21T03:11:02.353Z,33.47
2023-04-21T03:13:30.536Z,33.30
2023-04-21T03:15:58.508Z,33.07
2023-04-21T03:18:26.645Z,33.08
2023-04-21T03:21:00.928Z,33.28
2023-04-21T03:23:28.797Z,33.39
2023-04-21T03:25:56.640Z,33.41
2023-04-21T03:28:24.616Z,33.29
2023-04-21T03:30:52.495Z,33.31
2023-04-21T03:33:20.744Z,33.66
2023-04-21T03:35:48.613Z,33.67
2023-04-21T03:38:17.882Z,33.26
2023-04-21T03:40:45.853Z,33.57
2023-04-21T03:43:14.027Z,33.59
2023-04-21T03:45:41.987Z,33.54
2023-04-21T03:48:09.935Z,33.54
2023-04-21T03:50:38.479Z,33.15
2023-04-21T03:53:06.698Z,33.27
2023-04-21T03:55:36.002Z,33.46
2023-04-21T03:58:03.944Z,33.14
2023-04-21T04:00:31.936Z,33.59
2023-04-21T04:03:00.697Z,33.54
2023-04-21T04:05:28.857Z,33.71
2023-04-21T04:07:56.835Z,33.46
2023-04-21T04:10:24.764Z,33.38
2023-04-21T04:12:55.269Z,33.27
2023-04-21T04:15:23.689Z,33.02
2023-04-21T04:17:51.671Z,33.32
2023-04-21T04:20:19.764Z,33.25
2023-04-21T04:22:47.700Z,33.71
2023-04-21T04:25:17.000Z,33.82
2023-04-21T04:27:45.731Z,33.53
2023-04-21T04:30:15.166Z,33.15
2023-04-21T04:32:43.150Z,33.55
2023-04-21T04:35:12.969Z,33.52
2023-04-21T04:37:41.254Z,33.49
2023-04-21T04:40:12.180Z,33.53
2023-04-21T04:42:40.702Z,33.33
2023-04-21T04:45:11.840Z,33.35
2023-04-21T04:47:41.583Z,33.50
2023-04-21T04:50:09.821Z,33.22
2023-04-21T04:52:37.785Z,33.71
2023-04-21T04:55:07.349Z,33.59
2023-04-21T04:57:35.536Z,33.30
2023-04-21T05:00:03.479Z,33.52
2023-04-21T05:02:32.021Z,33.77
2023-04-21T05:05:01.821Z,33.21
2023-04-21T05:07:29.895Z,33.57
2023-04-21T05:09:57.851Z,33.30
2023-04-21T05:12:25.916Z,33.56
2023-04-21T05:14:53.807Z,33.65
2023-04-21T05:17:22.766Z,33.79
2023-04-21T05:19:50.810Z,33.37
2023-04-21T05:22:20.222Z,33.33
2023-04-21T05:24:48.515Z,33.70
2023-04-21T05:27:16.472Z,33.64
2023-04-21T05:29:44.380Z,33.74
2023-04-21T05:32:12.551Z,33.55
2023-04-21T05:34:40.874Z,33.82
2023-04-21T05:37:08.759Z,33.34
2023-04-21T05:39:38.116Z,33.58
2023-04-21T05:42:06.737Z,33.62
2023-04-21T05:44:34.972Z,33.30
2023-04-21T05:47:02.920Z,33.12
2023-04-21T05:49:30.836Z,33.80
2023-04-21T05:51:58.752Z,33.41
2023-04-21T05:54:26.970Z,33.47
2023-04-21T05:56:56.948Z,33.45
2023-04-21T05:59:26.372Z,33.45
2023-04-21T06:01:54.495Z,33.50
2023-04-21T06:04:23.026Z,33.70
2023-04-21T06:06:51.193Z,33.66
2023-04-21T06:09:19.125Z,33.65
2023-04-21T06:11:47.056Z,33.83
2023-04-21T06:14:16.612Z,33.34
2023-04-21T06:16:46.916Z,33.89
2023-04-21T06:19:14.926Z,33.62
2023-04-21T06:21:42.793Z,33.64
2023-04-21T06:24:10.973Z,33.58
2023-04-21T06:26:38.869Z,33.75
2023-04-21T06:29:06.805Z,33.45
2023-04-21T06:31:36.185Z,33.87
2023-04-21T06:34:04.381Z,33.51
2023-04-21T06:36:33.052Z,33.68
2023-04-21T06:39:01.292Z,33.69
2023-04-21T06:41:29.185Z,33.76
2023-04-21T06:43:57.428Z,34.16
2023-04-21T06:46:25.376Z,33.57
2023-04-21T06:48:54.660Z,33.52
2023-04-21T06:51:22.566Z,33.56
2023-04-21T06:53:50.799Z,33.94
2023-04-21T06:56:18.928Z,33.82
2023-04-21T06:58:47.892Z,33.77
2023-04-21T07:01:16.032Z,33.89
2023-04-21T07:03:45.695Z,34.00
2023-04-21T07:06:15.173Z,34.08
2023-04-21T07:08:43.305Z,33.89
2023-04-21T07:11:11.297Z,33.66
2023-04-21T07:13:39.209Z,33.94
2023-04-21T07:16:07.456Z,33.83
2023-04-21T07:18:35.646Z,33.79
2023-04-21T07:21:03.619Z,34.17
2023-04-21T07:23:33.413Z,33.73
2023-04-21T07:26:01.425Z,33.85
2023-04-21T07:28:29.424Z,33.79
2023-04-21T07:30:57.389Z,33.84
2023-04-21T07:33:25.636Z,33.97
2023-04-21T07:35:53.571Z,33.79
2023-04-21T07:38:21.463Z,34.15
2023-04-21T07:40:50.748Z,33.73
2023-04-21T07:43:19.632Z,34.07
2023-04-21T07:45:47.568Z,33.83
2023-04-21T07:48:15.847Z,33.87
2023-04-21T07:50:43.798Z,34.06
2023-04-21T07:53:12.012Z,34.13
2023-04-21T07:55:39.881Z,33.76
2023-04-21T07:58:10.429Z,33.83
2023-04-21T08:00:38.441Z,33.74
2023-04-21T08:03:06.814Z,34.35
2023-04-21T08:05:37.689Z,33.68
2023-04-21T08:08:08.414Z,33.98
2023-04-21T08:10:36.346Z,34.09
2023-04-21T08:13:06.393Z,34.11
2023-04-21T08:15:36.357Z,34.02
2023-04-21T08:18:04.377Z,33.98
2023-04-21T08:20:32.312Z,34.23
2023-04-21T08:23:02.575Z,33.99
2023-04-21T08:25:31.010Z,34.11
2023-04-21T08:27:58.975Z,34.23
2023-04-21T08:30:28.353Z,34.15
2023-04-21T08:32:57.748Z,34.01
2023-04-21T08:35:25.780Z,34.43
2023-04-21T08:37:53.781Z,34.12
2023-04-21T08:40:21.685Z,33.93
2023-04-21T08:42:49.802Z,34.05
2023-04-21T08:45:17.793Z,34.08
2023-04-21T08:47:45.897Z,34.33
2023-04-21T08:50:15.652Z,34.29
2023-04-21T08:52:43.562Z,34.33
2023-04-21T08:55:12.974Z,34.19
2023-04-21T08:57:40.913Z,34.19
2023-04-21T09:00:11.634Z,34.10
2023-04-21T09:03:00.174Z,34.05
2023-04-21T09:05:32.005Z,34.15
2023-04-21T09:08:09.290Z,34.04
2023-04-21T09:10:46.305Z,34.22
2023-04-21T09:13:14.207Z,34.10
2023-04-21T09:15:42.106Z,34.17
2023-04-21T09:18:15.678Z,34.42
2023-04-21T09:20:46.873Z,34.38
2023-04-21T09:23:16.588Z,34.32
2023-04-21T09:25:45.781Z,34.29
2023-04-21T09:28:14.140Z,34.10
2023-04-21T09:30:44.259Z,34.14
2023-04-21T09:33:27.249Z,34.15
2023-04-21T09:35:58.627Z,34.22
2023-04-21T09:38:26.500Z,34.27
2023-04-21T09:41:00.610Z,34.42
2023-04-21T09:43:28.507Z,34.14
2023-04-21T09:45:56.479Z,34.33
2023-04-21T09:48:24.453Z,34.14
2023-04-21T09:51:22.739Z,34.68
2023-04-21T09:53:41.946Z,34.47
2023-04-21T09:56:11.865Z,34.73
2023-04-21T09:58:48.776Z,34.31
2023-04-21T10:01:16.806Z,34.40
2023-04-21T10:03:45.860Z,34.72
2023-04-21T10:06:14.024Z,34.29
2023-04-21T10:08:43.790Z,34.74
2023-04-21T10:11:11.718Z,34.43
2023-04-21T10:13:40.008Z,34.38
2023-04-21T10:16:08.922Z,34.55
2023-04-21T10:18:38.332Z,34.59
2023-04-21T10:21:07.941Z,34.54
2023-04-21T10:23:39.453Z,34.55
2023-04-21T10:26:11.302Z,34.52
2023-04-21T10:28:55.718Z,34.53
2023-04-21T10:31:30.394Z,34.37
2023-04-21T10:34:20.571Z,34.92
2023-04-21T10:36:51.885Z,34.82
2023-04-21T10:39:29.400Z,34.55
2023-04-21T10:41:59.296Z,34.74
2023-04-21T10:44:27.823Z,34.67
2023-04-21T10:46:56.484Z,34.36
2023-04-21T10:49:24.917Z,34.48
2023-04-21T10:52:05.992Z,34.96
2023-04-21T10:54:41.604Z,34.80
2023-04-21T10:57:12.073Z,34.70
2023-04-21T10:59:39.991Z,34.86
2023-04-21T11:02:09.453Z,34.82
2023-04-21T11:04:40.265Z,34.68
2023-04-21T11:07:08.952Z,34.73
2023-04-21T11:09:37.244Z,34.75
2023-04-21T11:12:07.470Z,34.72
2023-04-21T11:14:37.777Z,35.11
2023-04-21T11:17:06.206Z,34.78
2023-04-21T11:19:34.183Z,35.05
2023-04-21T11:22:02.094Z,35.05
2023-04-21T11:24:30.375Z,34.89
2023-04-21T11:26:58.421Z,34.73
2023-04-21T11:29:26.351Z,34.82
2023-04-21T11:31:57.717Z,34.70
2023-04-21T11:34:27.339Z,34.49
2023-04-21T11:36:55.828Z,34.83
2023-04-21T11:39:23.730Z,35.04
2023-04-21T11:41:52.103Z,34.89
2023-04-21T11:44:32.470Z,34.92
2023-04-21T11:47:01.897Z,34.92
2023-04-21T11:49:30.556Z,35.09
2023-04-21T11:51:58.504Z,34.91
2023-04-21T11:54:26.744Z,34.93
2023-04-21T11:56:55.461Z,35.12
2023-04-21T11:59:25.712Z,35.28
2023-04-21T12:01:54.933Z,35.28
2023-04-21T12:04:25.405Z,34.85
2023-04-21T12:06:57.967Z,34.89
2023-04-21T12:09:25.961Z,35.12
2023-04-21T12:11:54.588Z,34.93
2023-04-21T12:14:23.294Z,35.18
2023-04-21T12:16:51.743Z,34.89
2023-04-21T12:19:36.656Z,35.04
2023-04-21T12:22:08.488Z,35.20
2023-04-21T12:24:36.979Z,34.71
2023-04-21T12:27:05.133Z,35.31
2023-04-21T12:29:35.070Z,35.09
2023-04-21T12:32:03.280Z,35.23
2023-04-21T12:34:33.014Z,35.11
2023-04-21T12:37:00.944Z,35.00
2023-04-21T12:39:29.982Z,35.25
2023-04-21T12:41:58.335Z,35.08
2023-04-21T12:44:26.906Z,35.02
2023-04-21T12:46:54.889Z,35.29
2023-04-21T12:49:22.894Z,34.93
2023-04-21T12:51:52.230Z,35.17
2023-04-21T12:54:20.449Z,35.12
2023-04-21T12:56:48.333Z,35.01
2023-04-21T12:59:16.235Z,34.74
2023-04-21T13:01:44.557Z,35.30
2023-04-21T13:04:13.152Z,34.86
2023-04-21T13:06:41.320Z,35.18
2023-04-21T13:09:11.330Z,35.04
2023-04-21T13:11:39.941Z,34.99
2023-04-21T13:14:08.290Z,34.99
2023-04-21T13:16:36.260Z,35.45
2023-04-21T13:19:04.206Z,35.16
2023-04-21T13:21:32.721Z,35.17
2023-04-21T13:24:02.358Z,35.34
2023-04-21T13:26:32.397Z,35.35
2023-04-21T13:29:00.282Z,35.33
2023-04-21T13:31:28.220Z,35.23
2023-04-21T13:33:56.537Z,35.04
2023-04-21T13:36:24.498Z,35.08
2023-04-21T13:38:53.922Z,35.35
2023-04-21T13:41:21.813Z,35.31
2023-04-21T13:43:51.372Z,35.12
2023-04-21T13:46:19.903Z,35.15
2023-04-21T13:48:47.827Z,35.29
2023-04-21T13:51:15.714Z,35.14
2023-04-21T13:53:43.900Z,35.25
2023-04-21T13:56:13.791Z,35.38
2023-04-21T13:58:42.154Z,35.30
2023-04-21T14:01:11.709Z,34.96
2023-04-21T14:03:40.216Z,35.12
2023-04-21T14:06:08.411Z,35.53
2023-04-21T14:08:36.541Z,35.43
2023-04-21T14:11:04.830Z,35.01
2023-04-21T14:13:37.838Z,35.54
2023-04-21T14:16:11.671Z,35.00
2023-04-21T14:18:44.463Z,35.53
2023-04-21T14:21:12.525Z,34.98
2023-04-21T14:23:40.479Z,35.27
2023-04-21T14:26:08.356Z,34.94
2023-04-21T14:28:36.352Z,35.24
2023-04-21T14:31:05.374Z,35.15
2023-04-21T14:33:37.765Z,35.21
2023-04-21T14:36:05.782Z,35.25
2023-04-21T14:38:34.713Z,35.24
2023-04-21T14:41:02.604Z,35.21
2023-04-21T14:43:30.773Z,35.47
2023-04-21T14:45:58.846Z,35.04
2023-04-21T14:48:27.253Z,35.46
2023-04-21T14:50:58.069Z,35.04
2023-04-21T14:53:26.407Z,35.52
2023-04-21T14:55:54.809Z,35.36
2023-04-21T14:58:22.859Z,35.48
2023-04-21T15:00:50.994Z,35.32
2023-04-21T15:03:20.585Z,35.21
2023-04-21T15:05:48.745Z,35.52
2023-04-21T15:08:18.368Z,35.33
2023-04-21T15:10:47.614Z,35.49
2023-04-21T15:13:15.915Z,35.37
2023-04-21T15:15:43.864Z,35.65
2023-04-21T15:18:11.854Z,35.41
2023-04-21T15:20:45.356Z,35.05
2023-04-21T15:23:14.080Z,35.26
2023-04-21T15:25:43.518Z,35.39
2023-04-21T15:28:12.831Z,35.18
2023-04-21T15:30:40.823Z,35.56
2023-04-21T15:33:11.596Z,35.33
2023-04-21T15:35:39.746Z,35.32
2023-04-21T15:38:07.990Z,35.22
2023-04-21T15:40:39.295Z,35.15
2023-04-21T15:43:16.201Z,35.26
2023-04-21T15:45:44.196Z,35.58
2023-04-21T15:48:13.213Z,35.12
2023-04-21T15:50:41.292Z,35.29
2023-04-21T15:53:09.741Z,35.46
2023-04-21T15:55:37.880Z,35.28
2023-04-21T15:58:06.105Z,35.42
2023-04-21T16:00:35.429Z,35.30
2023-04-21T16:03:03.933Z,35.09
2023-04-21T16:05:32.257Z,35.38
2023-04-21T16:08:00.684Z,35.02
2023-04-21T16:10:28.990Z,35.20
2023-04-21T16:12:56.943Z,35.19
2023-04-21T16:15:25.354Z,34.99
2023-04-21T16:17:54.971Z,35.20
2023-04-21T16:20:22.976Z,35.51
2023-04-21T16:22:51.236Z,35.50
2023-04-21T16:25:20.092Z,35.22
2023-04-21T16:27:48.196Z,35.28
2023-04-21T16:30:16.357Z,35.48
2023-04-21T16:32:44.325Z,35.15
2023-04-21T16:35:13.958Z,35.07
2023-04-21T16:37:42.888Z,35.24
2023-04-21T16:40:11.490Z,35.25
2023-04-21T16:42:39.435Z,35.21
2023-04-21T16:45:10.507Z,35.15
2023-04-21T16:47:41.775Z,35.10
2023-04-21T16:50:10.570Z,35.25
2023-04-21T16:52:39.876Z,35.19
2023-04-21T16:55:08.824Z,35.26
2023-04-21T16:57:36.719Z,35.15
2023-04-21T17:00:09.179Z,35.25
2023-04-21T17:02:37.315Z,34.92
2023-04-21T17:05:06.329Z,34.99
2023-04-21T17:07:35.290Z,35.35
2023-04-21T17:10:05.007Z,35.46
2023-04-21T17:12:32.954Z,35.62
2023-04-21T17:15:01.153Z,35.70
2023-04-21T17:17:29.190Z,35.71
2023-04-21T17:19:57.135Z,35.90
2023-04-21T17:22:25.030Z,36.19
2023-04-21T17:24:53.976Z,36.14
2023-04-21T17:27:23.623Z,36.17
2023-04-21T17:29:51.536Z,36.10
2023-04-21T17:32:19.792Z,36.25
2023-04-21T17:34:48.194Z,36.54
2023-04-21T17:37:16.071Z,36.60
2023-04-21T17:39:43.997Z,36.72
2023-04-21T17:42:11.879Z,36.84
2023-04-21T17:44:41.933Z,36.66
2023-04-21T17:47:10.118Z,36.80
2023-04-21T17:49:38.122Z,36.70
2023-04-21T17:52:06.530Z,36.78
2023-04-21T17:54:35.061Z,36.91
2023-04-21T17:57:03.053Z,36.97
2023-04-21T17:59:31.148Z,37.21
2023-04-21T18:02:01.031Z,36.74
2023-04-21T18:04:30.749Z,37.14
2023-04-21T18:06:59.004Z,37.19
2023-04-21T18:09:27.053Z,37.18
2023-04-21T18:11:56.863Z,37.38
2023-04-21T18:14:26.777Z,37.41
2023-04-21T18:16:55.192Z,37.63
2023-04-21T18:19:24.621Z,37.34
2023-04-21T18:21:52.556Z,37.55
2023-04-21T18:24:20.514Z,37.61
2023-04-21T18:26:48.425Z,37.84
2023-04-21T18:29:17.865Z,37.67
2023-04-21T18:31:45.958Z,37.60
2023-04-21T18:34:15.110Z,37.53
2023-04-21T18:36:44.423Z,37.80
2023-04-21T18:39:12.470Z,37.82
2023-04-21T18:41:40.494Z,37.69
2023-04-21T18:44:11.111Z,37.89
2023-04-21T18:46:39.145Z,37.73
2023-04-21T18:49:07.129Z,38.18
2023-04-21T18:51:35.365Z,38.00
2023-04-21T18:54:05.439Z,38.13
2023-04-21T18:56:33.607Z,38.01
2023-04-21T18:59:01.563Z,38.17
2023-04-21T19:01:29.566Z,38.07
2023-04-21T19:03:58.923Z,37.89
2023-04-21T19:06:27.946Z,38.17
2023-04-21T19:08:56.881Z,38.24
2023-04-21T19:11:26.183Z,38.11
2023-04-21T19:13:54.394Z,38.56
2023-04-21T19:16:22.345Z,38.23
2023-04-21T19:18:52.144Z,38.38
2023-04-21T19:21:20.162Z,38.48
2023-04-21T19:23:48.540Z,38.54
2023-04-21T19:26:16.542Z,38.59
2023-04-21T19:28:45.883Z,38.71
2023-04-21T19:31:13.781Z,38.49
2023-04-21T19:33:41.941Z,38.60
2023-04-21T19:36:09.876Z,38.68
2023-04-21T19:38:37.812Z,38.66
2023-04-21T19:41:05.725Z,38.66
2023-04-21T19:43:33.984Z,38.71
2023-04-21T19:46:03.332Z,38.66
2023-04-21T19:48:31.487Z,38.87
2023-04-21T19:50:59.501Z,39.12
2023-04-21T19:53:28.749Z,38.90
2023-04-21T19:55:56.628Z,39.08
2023-04-21T19:58:38.664Z,38.91
2023-04-21T20:01:09.443Z,38.76
2023-04-21T20:03:37.934Z,39.03
2023-04-21T20:06:06.497Z,38.96
2023-04-21T20:08:35.563Z,39.20
2023-04-21T20:11:03.575Z,39.13
2023-04-21T20:13:31.777Z,39.03
2023-04-21T20:15:59.809Z,39.38
2023-04-21T20:18:29.187Z,39.46
2023-04-21T20:20:57.183Z,39.30
2023-04-21T20:23:26.431Z,39.39
2023-04-21T20:25:54.397Z,39.44
2023-04-21T20:28:22.318Z,39.45
2023-04-21T20:30:50.209Z,39.57
2023-04-21T20:33:18.219Z,39.62
2023-04-21T20:35:47.544Z,39.41
2023-04-21T20:38:15.972Z,39.83
2023-04-21T20:40:43.951Z,39.89
2023-04-21T20:43:12.335Z,39.61
2023-04-21T20:45:41.295Z,39.77
2023-04-21T20:48:09.341Z,39.68
2023-04-21T20:50:37.338Z,39.85
2023-04-21T20:53:08.827Z,39.95
2023-04-21T20:55:36.802Z,39.70
2023-04-21T20:58:04.863Z,39.82
2023-04-21T21:00:34.373Z,40.31
2023-04-21T21:03:03.879Z,39.92
2023-04-21T21:05:34.050Z,39.85
2023-04-21T21:08:01.982Z,40.15
2023-04-21T21:10:31.328Z,40.17
2023-04-21T21:12:59.823Z,40.25
2023-04-21T21:15:27.949Z,40.08
2023-04-21T21:17:56.762Z,40.34
2023-04-21T21:20:24.731Z,40.16
2023-04-21T21:22:52.706Z,40.43
2023-04-21T21:25:20.652Z,40.20
2023-04-21T21:27:50.032Z,40.12
2023-04-21T21:30:17.934Z,40.38
2023-04-21T21:32:45.884Z,40.31
2023-04-21T21:35:13.806Z,40.27
2023-04-21T21:37:41.959Z,40.36
2023-04-21T21:40:11.027Z,40.39
2023-04-21T21:42:39.030Z,40.49
2023-04-21T21:45:12.721Z,40.14
2023-04-21T21:47:43.182Z,40.28
2023-04-21T21:50:12.588Z,40.26
2023-04-21T21:52:40.474Z,40.08
2023-04-21T21:55:09.512Z,40.20
2023-04-21T21:57:37.560Z,40.13
2023-04-21T22:00:09.013Z,40.39
2023-04-21T22:02:38.442Z,40.51
2023-04-21T22:05:07.071Z,40.66
2023-04-21T22:07:35.422Z,40.49
2023-04-21T22:10:03.837Z,40.28
2023-04-21T22:12:32.493Z,40.57
2023-04-21T22:15:01.174Z,40.43
2023-04-21T22:17:29.710Z,40.26
2023-04-21T22:19:59.124Z,40.27
2023-04-21T22:22:27.113Z,40.27
2023-04-21T22:24:55.512Z,40.50
2023-04-21T22:27:23.395Z,40.52
2023-04-21T22:29:51.430Z,40.33
2023-04-21T22:32:19.351Z,40.34
2023-04-21T22:34:47.513Z,40.41
2023-04-21T22:37:16.851Z,40.87
2023-04-21T22:39:45.912Z,40.28
2023-04-21T22:42:13.788Z,40.44
2023-04-21T22:44:41.704Z,40.70
2023-04-21T22:47:10.633Z,40.58
2023-04-21T22:49:38.883Z,40.39
2023-04-21T22:52:07.146Z,40.53
2023-04-21T22:54:36.436Z,40.50
2023-04-21T22:57:04.365Z,40.46
2023-04-21T22:59:32.284Z,40.76
2023-04-21T23:02:00.312Z,40.73
2023-04-21T23:04:28.344Z,40.64
2023-04-21T23:06:56.281Z,40.44
2023-04-21T23:09:24.222Z,40.42
2023-04-21T23:11:53.653Z,40.77
2023-04-21T23:14:21.562Z,40.90
2023-04-21T23:16:49.539Z,40.79
2023-04-21T23:19:17.507Z,40.83
2023-04-21T23:21:46.486Z,40.60
2023-04-21T23:24:14.487Z,40.56
2023-04-21T23:26:42.410Z,40.60
2023-04-21T23:29:11.691Z,40.36
2023-04-21T23:31:40.000Z,40.53
2023-04-21T23:34:08.265Z,40.46
2023-04-21T23:36:36.318Z,40.75
2023-04-21T23:39:04.280Z,40.72
2023-04-21T23:41:32.194Z,40.30
2023-04-21T23:44:00.338Z,40.50
2023-04-21T23:46:29.736Z,40.71
2023-04-21T23:48:57.733Z,40.50
2023-04-21T23:51:25.745Z,40.44
2023-04-21T23:53:53.957Z,40.49
2023-04-21T23:56:21.918Z,40.66
2023-04-21T23:58:49.865Z,40.61
